Akjoujt Airport


Codes: GQNJ/AJJ
Name: Akjoujt Airport
City: Akjoujt
Country: Mauritania
Elevation: 403 ft.
Wikipedia:

Photos at Akjoujt Airport


   Photos courtesy of SpottingLog. You can add your own sightings and photos by signing up for a free trial today.



No photos found.

Weather at Akjoujt Airport


Time (UTC)DescriptionTempratureWindCloud coverageVisibilityPressureHumidity
17-Jun-2024 06:00Clear Sky33°C16 mph, NE3%10000m1006hPa15%
17-Jun-2024 09:00Clear Sky35°C25 mph, NE7%10000m1007hPa13%
17-Jun-2024 12:00Few Clouds43°C22 mph, NE14%10000m1007hPa9%
17-Jun-2024 15:00Scattered Clouds46°C18 mph, E31%10000m1004hPa8%
17-Jun-2024 18:00Few Clouds44°C18 mph, SE22%10000m1003hPa10%
17-Jun-2024 21:00Clear Sky38°C13 mph, S4%10000m1006hPa17%
18-Jun-2024 00:00Scattered Clouds35°C9 mph, S26%10000m1008hPa23%
18-Jun-2024 03:00Clear Sky30°C7 mph, W10%10000m1009hPa32%
18-Jun-2024 06:00Scattered Clouds29°C4 mph, SW29%10000m1010hPa35%
18-Jun-2024 09:00Broken Clouds34°C7 mph, SE63%10000m1011hPa26%
18-Jun-2024 12:00Broken Clouds40°C16 mph, SE65%10000m1012hPa19%
18-Jun-2024 15:00Few Clouds43°C9 mph, E20%10000m1009hPa15%
18-Jun-2024 18:00Light Rain41°C9 mph, E59%10000m1009hPa19%
18-Jun-2024 21:00Overcast Clouds37°C2 mph, W99%10000m1009hPa22%
19-Jun-2024 00:00Overcast Clouds33°C13 mph, NW99%10000m1011hPa31%
19-Jun-2024 03:00Light Rain33°C4 mph, N66%10000m1009hPa32%
19-Jun-2024 06:00Broken Clouds33°C7 mph, NE73%10000m1010hPa33%
19-Jun-2024 09:00Overcast Clouds36°C9 mph, NE87%10000m1011hPa25%
19-Jun-2024 12:00Overcast Clouds41°C7 mph, W94%10000m1011hPa18%
19-Jun-2024 15:00Overcast Clouds42°C9 mph, SW99%10000m1009hPa17%
19-Jun-2024 18:00Overcast Clouds41°C18 mph, SW96%10000m1009hPa19%
19-Jun-2024 21:00Clear Sky32°C18 mph, W7%10000m1011hPa32%
20-Jun-2024 00:00Clear Sky28°C13 mph, W6%10000m1011hPa41%
20-Jun-2024 03:00Clear Sky28°C7 mph, NW3%10000m1009hPa42%
20-Jun-2024 06:00Clear Sky30°C13 mph, N1%10000m1009hPa24%
20-Jun-2024 09:00Clear Sky34°C25 mph, NE3%10000m1010hPa19%
20-Jun-2024 12:00Clear Sky40°C18 mph, NE6%10000m1010hPa13%
20-Jun-2024 15:00Clear Sky43°C18 mph, NE3%10000m1008hPa10%
20-Jun-2024 18:00Clear Sky42°C16 mph, N2%10000m1007hPa9%
20-Jun-2024 21:00Clear Sky37°C11 mph, N2%10000m1009hPa12%
21-Jun-2024 00:00Clear Sky35°C16 mph, NE1%10000m1010hPa12%
21-Jun-2024 03:00Clear Sky33°C20 mph, NE0%10000m1009hPa13%
21-Jun-2024 06:00Clear Sky30°C20 mph, NE0%10000m1009hPa16%
21-Jun-2024 09:00Clear Sky33°C22 mph, NE2%10000m1011hPa16%
21-Jun-2024 12:00Clear Sky39°C20 mph, NE3%10000m1011hPa11%
21-Jun-2024 15:00Clear Sky43°C18 mph, NE4%10000m1008hPa9%
21-Jun-2024 18:00Clear Sky43°C16 mph, N4%10000m1008hPa8%
21-Jun-2024 21:00Clear Sky37°C11 mph, N3%10000m1009hPa10%
22-Jun-2024 00:00Clear Sky35°C18 mph, N1%10000m1009hPa11%
22-Jun-2024 03:00Clear Sky32°C18 mph, NE0%10000m1009hPa14%